Time;durP1;ratioP1;P1;durP2;ratioP2;P2;SDS_P1;SDS_P2;PMS_P1;PMS_P2;Temp;Humidity;BMP_temperature;BMP_pressure;BME280_temperature;BME280_humidity;BME280_pressure;Samples;Min_cycle;Max_cycle;Signal;HPM_P1;HPM_P2
2022/06/17 00:01:00;;;;;;;1.88;1.20;;;;;;;28.04;42.56;97107.66;5134943;27;20030;-26
2022/06/17 00:03:29;;;;;;;3.03;1.50;;;;;;;27.95;42.39;97108.03;5138567;27;20098;-28
2022/06/17 00:05:56;;;;;;;2.15;1.23;;;;;;;28.05;42.46;97106.38;5138133;27;20471;-26
2022/06/17 00:08:38;;;;;;;1.67;1.52;;;;;;;27.93;42.57;97116.19;5138290;27;20030;-26
2022/06/17 00:11:10;;;;;;;3.63;1.20;;;;;;;27.97;42.77;97116.63;5138158;27;20019;-27
2022/06/17 00:13:36;;;;;;;1.90;1.23;;;;;;;28.00;42.50;97118.34;5137993;27;20074;-26
2022/06/17 00:16:01;;;;;;;1.35;1.20;;;;;;;27.97;42.26;97115.88;5138053;27;20050;-26
2022/06/17 00:18:27;;;;;;;1.30;1.13;;;;;;;28.03;42.03;97120.09;5138144;27;20019;-28
2022/06/17 00:20:52;;;;;;;1.77;1.48;;;;;;;28.07;41.97;97108.63;5137866;27;20435;-26
2022/06/17 00:23:20;;;;;;;2.95;1.50;;;;;;;28.06;42.38;97115.50;5138260;27;20071;-27
2022/06/17 00:25:47;;;;;;;1.95;1.40;;;;;;;27.97;42.37;97111.03;5119468;27;20544;-26
2022/06/17 00:28:20;;;;;;;1.75;1.40;;;;;;;28.02;42.34;97113.00;5137693;27;20360;-26
2022/06/17 00:30:47;;;;;;;2.45;1.63;;;;;;;28.02;42.56;97104.66;5119441;27;20495;-26
2022/06/17 00:33:14;;;;;;;1.45;1.35;;;;;;;27.98;42.42;97109.00;5137759;27;20031;-26
2022/06/17 00:35:44;;;;;;;3.10;1.40;;;;;;;27.93;42.76;97109.84;5137756;27;20019;-26
2022/06/17 00:38:14;;;;;;;2.05;1.30;;;;;;;27.92;42.68;97108.34;5137688;27;20476;-26
2022/06/17 00:40:40;;;;;;;1.45;1.25;;;;;;;27.92;42.26;97113.91;5137903;27;20091;-26
2022/06/17 00:43:11;;;;;;;1.95;1.40;;;;;;;28.01;42.16;97108.72;5137577;27;20057;-26
2022/06/17 00:45:50;;;;;;;2.58;1.48;;;;;;;28.02;42.09;97117.84;5137893;27;20034;-26
2022/06/17 00:48:15;;;;;;;1.77;1.35;;;;;;;27.99;42.06;97116.09;5137876;27;20043;-27
2022/06/17 00:51:07;;;;;;;2.72;1.70;;;;;;;28.00;42.15;97106.44;5137485;27;20107;-26
2022/06/17 00:53:42;;;;;;;1.85;1.35;;;;;;;28.02;41.90;97101.84;5119486;27;20106;-27
2022/06/17 00:56:18;;;;;;;1.73;1.50;;;;;;;28.02;42.19;97099.06;5137478;27;20341;-26
2022/06/17 00:59:09;;;;;;;1.55;1.30;;;;;;;27.98;41.74;97090.25;5137471;27;20015;-26
2022/06/17 01:01:37;;;;;;;2.95;1.50;;;;;;;28.03;41.61;97086.63;5137137;27;20104;-26
2022/06/17 01:04:05;;;;;;;1.60;1.48;;;;;;;28.03;41.71;97078.28;5137235;27;20379;-26
2022/06/17 01:06:35;;;;;;;1.80;1.40;;;;;;;28.03;41.51;97069.91;5137167;27;20023;-26
2022/06/17 01:11:47;;;;;;;1.60;1.42;;;;;;;28.04;41.22;97053.94;5136809;27;20502;-26
2022/06/17 01:14:15;;;;;;;1.55;1.40;;;;;;;28.04;41.17;97051.16;5136833;27;20047;-26
2022/06/17 01:16:43;;;;;;;2.22;1.50;;;;;;;28.03;41.17;97047.59;5136983;27;20505;-26
2022/06/17 01:19:34;;;;;;;1.90;1.48;;;;;;;28.00;40.77;97048.66;5136965;27;20030;-26
2022/06/17 01:22:23;;;;;;;1.42;1.33;;;;;;;28.04;41.05;97043.53;5136976;27;20031;-26
2022/06/17 01:24:51;;;;;;;1.52;1.38;;;;;;;28.01;40.83;97050.16;5136828;27;20068;-26
2022/06/17 01:27:19;;;;;;;2.05;1.40;;;;;;;27.99;40.75;97051.97;5118473;27;20031;-26
2022/06/17 01:29:45;;;;;;;2.47;1.52;;;;;;;27.94;40.63;97050.78;5118370;27;20023;-26
2022/06/17 01:32:12;;;;;;;1.48;1.38;;;;;;;27.97;40.57;97048.94;5136647;27;20029;-27
2022/06/17 01:34:39;;;;;;;2.75;1.42;;;;;;;27.98;40.88;97051.22;5136555;27;20448;-27
2022/06/17 01:37:07;;;;;;;1.63;1.33;;;;;;;27.95;40.56;97049.47;5136514;27;20019;-26
2022/06/17 01:39:33;;;;;;;1.92;1.58;;;;;;;27.95;40.32;97046.69;5136465;27;20071;-26
2022/06/17 01:41:58;;;;;;;2.38;1.40;;;;;;;27.93;40.55;97060.44;5136393;27;20413;-26
2022/06/17 01:44:33;;;;;;;2.40;1.58;;;;;;;27.94;40.32;97055.59;5136312;27;20026;-26
2022/06/17 01:47:02;;;;;;;1.73;1.40;;;;;;;27.93;40.45;97049.28;5136624;27;20027;-27
2022/06/17 01:49:30;;;;;;;3.05;1.95;;;;;;;27.89;40.51;97054.38;5136286;27;20019;-26
2022/06/17 01:52:04;;;;;;;1.63;1.52;;;;;;;27.91;40.31;97051.84;5117899;27;20049;-26
2022/06/17 01:54:34;;;;;;;3.30;1.40;;;;;;;27.89;40.33;97048.81;5117662;27;20019;-26
2022/06/17 01:57:02;;;;;;;2.58;1.23;;;;;;;27.92;40.30;97041.44;5136230;27;20023;-26
2022/06/17 01:59:34;;;;;;;4.65;1.65;;;;;;;27.84;40.63;97050.38;5136181;27;20040;-26
2022/06/17 02:02:03;;;;;;;2.25;1.40;;;;;;;27.82;40.44;97049.41;5136352;27;20102;-26
2022/06/17 02:04:35;;;;;;;2.70;1.40;;;;;;;27.82;40.29;97047.38;5136381;27;20015;-27
2022/06/17 02:07:40;;;;;;;5.97;1.52;;;;;;;27.87;40.14;97048.59;5136006;27;20164;-26
2022/06/17 02:10:06;;;;;;;3.50;1.60;;;;;;;27.87;40.07;97043.00;5135977;27;20076;-26
2022/06/17 02:12:34;;;;;;;1.42;1.33;;;;;;;27.83;39.98;97045.34;5135615;27;20051;-26
2022/06/17 02:15:00;;;;;;;2.42;1.40;;;;;;;27.82;40.10;97041.78;5136071;27;20019;-26
2022/06/17 02:17:34;;;;;;;3.45;1.52;;;;;;;27.81;39.83;97036.78;5135958;27;20027;-26
2022/06/17 02:20:02;;;;;;;2.17;1.35;;;;;;;27.83;39.82;97042.56;5117496;27;20030;-26
2022/06/17 02:22:30;;;;;;;3.28;1.50;;;;;;;27.80;39.96;97036.03;5135582;27;20023;-26
2022/06/17 02:25:00;;;;;;;2.20;1.73;;;;;;;27.80;40.27;97049.19;5135074;27;20015;-26
2022/06/17 02:27:27;;;;;;;2.35;1.40;;;;;;;27.79;40.57;97040.09;5135857;27;20026;-26
2022/06/17 02:29:54;;;;;;;1.88;1.30;;;;;;;27.78;40.50;97046.19;5135564;27;20075;-26
2022/06/17 02:32:20;;;;;;;1.85;1.52;;;;;;;27.76;39.98;97052.28;5135539;27;20015;-26
2022/06/17 02:34:58;;;;;;;1.63;1.52;;;;;;;27.75;40.51;97045.19;5135288;27;20544;-26
2022/06/17 02:37:26;;;;;;;2.15;1.40;;;;;;;27.76;40.54;97051.53;5135551;27;20857;-26
2022/06/17 02:39:54;;;;;;;2.92;1.70;;;;;;;27.74;40.30;97054.84;5135294;27;20083;-26
2022/06/17 02:42:26;;;;;;;2.20;1.40;;;;;;;27.73;40.24;97053.31;5135359;27;20027;-26
2022/06/17 02:45:04;;;;;;;1.92;1.40;;;;;;;27.75;40.10;97056.34;5135278;27;20027;-26
2022/06/17 02:47:31;;;;;;;2.13;1.42;;;;;;;27.70;40.49;97054.38;5135246;27;20168;-27
2022/06/17 02:49:57;;;;;;;1.80;1.30;;;;;;;27.70;40.64;97048.81;5135239;27;20023;-26
2022/06/17 02:52:50;;;;;;;3.17;1.60;;;;;;;27.76;40.31;97049.50;5135085;27;20095;-26
2022/06/17 02:55:35;;;;;;;2.93;1.60;;;;;;;27.77;40.52;97048.22;5130657;27;20031;-26
2022/06/17 02:58:28;;;;;;;2.05;1.75;;;;;;;27.72;40.27;97051.06;5134949;27;20719;-26
2022/06/17 03:00:55;;;;;;;3.95;1.40;;;;;;;27.73;40.22;97041.44;5135095;27;20072;-27
2022/06/17 03:03:22;;;;;;;1.75;1.30;;;;;;;27.72;40.16;97037.13;5135057;27;20027;-26
2022/06/17 03:05:47;;;;;;;4.30;1.85;;;;;;;27.74;40.07;97026.22;5135287;27;20457;-26
2022/06/17 03:08:20;;;;;;;2.10;1.75;;;;;;;27.69;40.43;97032.63;5134954;27;20026;-26
2022/06/17 03:10:47;;;;;;;2.38;1.60;;;;;;;27.66;40.43;97042.78;5134812;27;20023;-26
2022/06/17 03:13:34;;;;;;;2.25;1.67;;;;;;;27.69;39.87;97041.75;5134639;27;20129;-26
2022/06/17 03:16:02;;;;;;;2.33;1.80;;;;;;;27.68;40.36;97042.28;5134751;27;20027;-26
2022/06/17 03:18:28;;;;;;;2.50;1.50;;;;;;;27.62;40.07;97047.91;5134850;27;20023;-26
2022/06/17 03:20:55;;;;;;;2.80;1.60;;;;;;;27.63;40.44;97048.66;5134421;27;20031;-26
2022/06/17 03:23:39;;;;;;;6.63;1.75;;;;;;;27.66;40.01;97047.59;5134537;27;20048;-27
2022/06/17 03:26:12;;;;;;;2.30;1.45;;;;;;;27.67;39.94;97043.53;5134887;27;20023;-26
2022/06/17 03:28:44;;;;;;;5.07;1.88;;;;;;;27.60;40.07;97038.56;5134809;27;20076;-26
2022/06/17 03:31:37;;;;;;;3.90;1.80;;;;;;;27.62;40.34;97036.00;5134510;27;20021;-26
2022/06/17 03:34:09;;;;;;;1.90;1.70;;;;;;;27.65;40.37;97035.72;5134615;27;20023;-27
2022/06/17 03:36:45;;;;;;;3.70;1.40;;;;;;;27.58;40.09;97043.91;5134322;27;20023;-26
2022/06/17 03:39:29;;;;;;;4.85;1.98;;;;;;;27.61;40.51;97043.59;5134605;27;20031;-26
2022/06/17 03:42:03;;;;;;;3.88;1.70;;;;;;;27.58;40.42;97047.44;5134397;27;20027;-27
2022/06/17 03:44:36;;;;;;;3.55;1.65;;;;;;;27.59;40.03;97048.94;5134380;28;20027;-26
2022/06/17 03:47:04;;;;;;;2.38;1.63;;;;;;;27.57;40.35;97045.19;5134434;28;20023;-26
2022/06/17 03:49:41;;;;;;;3.30;1.58;;;;;;;27.55;40.32;97048.47;5115829;28;20030;-26
2022/06/17 03:52:22;;;;;;;2.17;1.60;;;;;;;27.58;40.09;97046.69;5134720;28;20071;-26
2022/06/17 03:54:48;;;;;;;2.42;1.80;;;;;;;27.61;40.16;97045.63;5134153;28;20098;-26
2022/06/17 03:57:16;;;;;;;2.30;1.85;;;;;;;27.54;40.11;97047.72;5134245;28;20114;-27
2022/06/17 03:59:47;;;;;;;3.33;1.80;;;;;;;27.56;40.46;97052.06;5134158;28;20103;-26
2022/06/17 04:02:16;;;;;;;3.60;1.88;;;;;;;27.52;40.20;97058.63;5116041;28;20079;-26
2022/06/17 04:04:48;;;;;;;2.50;1.73;;;;;;;27.52;40.61;97055.84;5134258;28;20031;-26
2022/06/17 04:07:14;;;;;;;4.47;2.40;;;;;;;27.52;40.34;97053.06;5134295;28;20026;-26
2022/06/17 04:09:44;;;;;;;3.75;2.00;;;;;;;27.54;40.62;97058.13;5134035;28;20384;-26
2022/06/17 04:12:13;;;;;;;1.83;1.58;;;;;;;27.54;40.13;97061.66;5134083;28;20378;-26
2022/06/17 04:14:41;;;;;;;3.13;1.60;;;;;;;27.51;40.45;97059.16;5134015;28;20043;-27
2022/06/17 04:17:16;;;;;;;2.05;1.85;;;;;;;27.50;40.29;97063.22;5134210;28;20031;-26
2022/06/17 04:19:46;;;;;;;3.08;1.85;;;;;;;27.54;40.01;97063.69;5134112;28;20518;-26
2022/06/17 04:22:21;;;;;;;3.42;1.70;;;;;;;27.50;40.35;97060.44;5133888;28;20027;-26
2022/06/17 04:24:52;;;;;;;3.88;1.80;;;;;;;27.46;40.02;97057.94;5134122;28;20391;-26
2022/06/17 04:27:19;;;;;;;3.65;1.63;;;;;;;27.47;40.04;97065.00;5134025;28;20031;-26
2022/06/17 04:29:49;;;;;;;3.35;1.67;;;;;;;27.49;40.37;97068.03;5134000;28;20106;-26
2022/06/17 04:32:19;;;;;;;1.80;1.45;;;;;;;27.49;40.26;97062.47;5133819;28;20019;-27
2022/06/17 04:34:46;;;;;;;4.28;1.98;;;;;;;27.49;40.25;97062.47;5133915;28;20106;-26
2022/06/17 04:37:19;;;;;;;2.90;1.98;;;;;;;27.50;39.86;97054.88;5115487;28;20107;-26
2022/06/17 04:39:54;;;;;;;2.78;1.88;;;;;;;27.52;40.14;97063.44;5133712;28;20023;-26
2022/06/17 04:42:34;;;;;;;4.25;1.95;;;;;;;27.48;39.67;97058.16;5133706;28;20034;-26
2022/06/17 04:45:00;;;;;;;10.55;2.22;;;;;;;27.44;39.40;97077.22;5133876;28;20026;-26
2022/06/17 04:47:26;;;;;;;3.78;2.05;;;;;;;27.45;39.73;97064.78;5135226;27;20027;-27
2022/06/17 04:49:58;;;;;;;6.03;1.98;;;;;;;27.42;39.86;97065.09;5137682;27;20023;-26
2022/06/17 04:52:29;;;;;;;4.15;1.80;;;;;;;27.40;39.83;97060.03;5137470;27;20015;-26
2022/06/17 04:54:59;;;;;;;6.45;2.30;;;;;;;27.47;39.73;97058.69;5137379;27;20471;-26
2022/06/17 04:57:27;;;;;;;3.25;2.25;;;;;;;27.44;39.69;97068.13;5118592;27;20042;-26
2022/06/17 04:59:56;;;;;;;4.80;2.20;;;;;;;27.44;39.69;97060.50;5137360;27;20019;-26
2022/06/17 05:02:24;;;;;;;5.35;2.10;;;;;;;27.42;39.55;97063.06;5130843;27;20085;-26
2022/06/17 05:04:53;;;;;;;3.53;1.90;;;;;;;27.41;39.64;97058.78;5114695;28;20031;-26
2022/06/17 05:07:19;;;;;;;3.60;2.15;;;;;;;27.37;39.46;97055.50;5114753;28;20071;-26
2022/06/17 05:09:47;;;;;;;2.72;2.00;;;;;;;27.42;39.14;97060.28;5114653;28;20038;-27
2022/06/17 05:12:34;;;;;;;5.35;1.90;;;;;;;27.40;39.17;97054.47;5114526;28;20047;-27
2022/06/17 05:15:06;;;;;;;3.85;2.15;;;;;;;27.42;39.34;97040.78;5123364;27;20031;-26
2022/06/17 05:17:33;;;;;;;4.80;2.08;;;;;;;27.39;39.79;97043.84;5114569;27;20106;-27
2022/06/17 05:19:59;;;;;;;3.80;2.42;;;;;;;27.37;39.51;97038.81;5135048;27;20099;-27
2022/06/17 05:22:33;;;;;;;4.75;2.35;;;;;;;27.36;39.32;97042.09;5134800;27;20421;-27
2022/06/17 05:25:02;;;;;;;5.97;2.10;;;;;;;27.36;39.42;97037.28;5134948;27;20034;-26
2022/06/17 05:27:28;;;;;;;3.47;2.25;;;;;;;27.38;39.12;97037.53;5134422;27;20098;-26
2022/06/17 05:29:54;;;;;;;4.32;2.38;;;;;;;27.37;39.34;97041.59;5134635;27;20107;-26
2022/06/17 05:32:21;;;;;;;3.10;2.00;;;;;;;27.38;39.39;97040.31;5134778;27;20038;-26
2022/06/17 05:34:47;;;;;;;5.07;2.30;;;;;;;27.39;39.25;97041.06;5134642;27;20020;-26
2022/06/17 05:37:14;;;;;;;4.60;2.38;;;;;;;27.39;39.23;97052.22;5134791;27;20026;-26
2022/06/17 05:39:41;;;;;;;3.63;2.10;;;;;;;27.42;39.09;97051.94;5134330;27;20076;-26
2022/06/17 05:42:09;;;;;;;3.40;2.35;;;;;;;27.32;39.58;97058.38;5134587;27;20043;-26
2022/06/17 05:44:35;;;;;;;5.03;2.20;;;;;;;27.40;39.08;97053.72;5134148;27;20031;-26
2022/06/17 05:47:01;;;;;;;3.40;1.92;;;;;;;27.38;39.00;97056.28;5134472;27;20058;-26
2022/06/17 05:49:27;;;;;;;5.45;2.53;;;;;;;27.35;39.18;97066.44;5134287;27;20058;-28
2022/06/17 05:51:52;;;;;;;5.68;2.40;;;;;;;27.39;38.80;97058.53;5121918;27;20439;-26
2022/06/17 05:54:18;;;;;;;4.57;2.35;;;;;;;27.40;38.77;97053.72;5113738;28;20024;-26
2022/06/17 05:56:44;;;;;;;5.80;2.40;;;;;;;27.43;38.51;97069.41;5113386;28;20028;-26
2022/06/17 05:59:10;;;;;;;4.15;2.20;;;;;;;27.36;38.41;97061.59;5112716;28;20103;-26
2022/06/17 06:01:36;;;;;;;4.72;2.20;;;;;;;27.39;38.25;97064.09;5095009;28;20027;-26
2022/06/17 06:04:02;;;;;;;3.47;2.13;;;;;;;27.44;38.43;97060.50;5094823;28;20514;-26
2022/06/17 06:06:28;;;;;;;2.42;1.90;;;;;;;27.30;38.50;97070.03;5113502;28;20055;-26
2022/06/17 06:08:54;;;;;;;4.45;2.10;;;;;;;27.38;38.73;97061.84;5113565;28;20035;-26
2022/06/17 06:11:19;;;;;;;3.03;2.13;;;;;;;27.41;38.64;97067.13;5113421;28;20043;-26
2022/06/17 06:13:45;;;;;;;3.65;1.85;;;;;;;27.32;38.76;97075.84;5112887;28;20056;-27
2022/06/17 06:16:13;;;;;;;5.45;2.65;;;;;;;27.41;38.47;97083.84;5113206;27;20027;-26
2022/06/17 06:18:39;;;;;;;5.22;2.28;;;;;;;27.34;38.87;97084.41;5121680;27;20429;-26
2022/06/17 06:21:06;;;;;;;3.58;2.03;;;;;;;27.31;38.45;97081.94;5130364;27;20494;-26
2022/06/17 06:23:36;;;;;;;4.95;2.25;;;;;;;27.31;39.14;97085.47;5133519;27;20027;-26
2022/06/17 06:26:04;;;;;;;4.07;1.98;;;;;;;27.35;38.94;97090.75;5121107;27;20055;-26
2022/06/17 06:28:30;;;;;;;2.17;1.85;;;;;;;27.35;38.84;97094.28;5119723;27;20028;-27
2022/06/17 06:31:07;;;;;;;3.60;2.10;;;;;;;27.34;38.77;97094.78;5112916;28;20026;-26
2022/06/17 06:33:33;;;;;;;4.07;2.15;;;;;;;27.40;38.75;97099.03;5113074;28;20494;-26
2022/06/17 06:35:59;;;;;;;4.13;2.17;;;;;;;27.33;38.58;97093.28;5112948;28;20106;-26
2022/06/17 06:38:24;;;;;;;3.55;2.05;;;;;;;27.39;38.90;97105.13;5112617;28;20062;-26
2022/06/17 06:40:50;;;;;;;2.95;1.85;;;;;;;27.32;38.69;97105.72;5112528;28;20059;-26
2022/06/17 06:43:19;;;;;;;2.95;1.88;;;;;;;27.21;38.85;97109.34;5112606;28;20019;-26
2022/06/17 06:45:47;;;;;;;3.53;2.25;;;;;;;27.36;38.59;97108.97;5112618;28;20134;-26
2022/06/17 06:48:16;;;;;;;2.67;2.05;;;;;;;27.34;38.91;97100.38;5112697;28;20047;-26
2022/06/17 06:50:42;;;;;;;3.50;2.40;;;;;;;27.23;38.68;97109.59;5096225;27;20125;-26
2022/06/17 06:53:09;;;;;;;2.00;1.80;;;;;;;27.34;39.06;97111.50;5133234;27;20098;-26
2022/06/17 06:55:36;;;;;;;5.15;2.35;;;;;;;27.27;38.96;97101.72;5133194;27;20038;-26
2022/06/17 06:58:06;;;;;;;3.75;2.50;;;;;;;27.11;39.13;97105.41;5133086;27;20029;-26
2022/06/17 07:00:38;;;;;;;3.42;2.15;;;;;;;27.21;39.13;97109.34;5133004;27;20026;-26
2022/06/17 07:03:04;;;;;;;2.90;1.90;;;;;;;27.17;39.33;97117.25;5132637;27;20065;-26
2022/06/17 07:05:33;;;;;;;6.30;1.88;;;;;;;27.06;39.05;97125.72;5133682;27;20037;-26
2022/06/17 07:07:58;;;;;;;3.00;2.20;;;;;;;26.86;39.71;97124.09;5134375;27;20532;-26
2022/06/17 07:10:27;;;;;;;3.75;2.05;;;;;;;27.05;39.21;97129.78;5115213;27;20117;-26
2022/06/17 07:12:54;;;;;;;7.25;2.20;;;;;;;27.07;39.31;97133.56;5134529;27;20054;-26
2022/06/17 07:15:21;;;;;;;6.60;2.42;;;;;;;26.91;39.48;97128.09;5135123;27;20027;-26
2022/06/17 07:18:03;;;;;;;3.72;2.40;;;;;;;26.99;39.08;97137.41;5134866;27;20079;-26
2022/06/17 07:20:37;;;;;;;3.03;2.10;;;;;;;27.13;39.19;97139.81;5134603;27;20019;-26
2022/06/17 07:23:07;;;;;;;4.78;2.42;;;;;;;27.21;38.63;97131.63;5133879;27;20038;-26
2022/06/17 07:25:34;;;;;;;3.95;1.98;;;;;;;27.09;39.01;97138.59;5133514;27;20054;-26
2022/06/17 07:28:00;;;;;;;4.00;2.22;;;;;;;27.02;39.01;97136.38;5134473;27;20034;-26
2022/06/17 07:30:26;;;;;;;3.45;1.85;;;;;;;27.07;39.17;97128.00;5134654;27;20079;-26
2022/06/17 07:32:52;;;;;;;5.13;2.00;;;;;;;27.11;39.16;97139.59;5134212;27;20387;-27
2022/06/17 07:35:17;;;;;;;2.92;2.17;;;;;;;27.35;38.88;97136.06;5134468;27;20019;-26
2022/06/17 07:40:28;;;;;;;5.03;2.30;;;;;;;27.18;39.18;97138.28;5134506;27;20026;-28
2022/06/17 07:42:55;;;;;;;4.75;2.00;;;;;;;27.16;38.81;97147.13;5134231;27;20080;-27
2022/06/17 07:45:23;;;;;;;3.38;2.25;;;;;;;27.14;38.88;97138.53;5134296;27;20039;-26
2022/06/17 07:47:54;;;;;;;4.07;2.40;;;;;;;27.39;39.16;97144.88;5115921;27;20023;-26
2022/06/17 07:50:28;;;;;;;2.72;2.10;;;;;;;27.31;38.81;97130.03;5134303;27;20476;-26
2022/06/17 07:52:54;;;;;;;3.80;2.13;;;;;;;27.37;38.69;97125.16;5115672;27;20023;-26
2022/06/17 07:55:20;;;;;;;3.58;2.20;;;;;;;27.45;38.92;97133.66;5133222;27;20030;-26
2022/06/17 07:57:46;;;;;;;2.53;2.08;;;;;;;27.47;38.84;97122.75;5134003;27;20042;-26
2022/06/17 08:00:30;;;;;;;3.15;2.00;;;;;;;27.45;39.08;97130.88;5134291;27;20064;-26
2022/06/17 08:02:56;;;;;;;3.00;2.20;;;;;;;27.46;38.76;97124.78;5134232;27;20023;-26
2022/06/17 08:05:22;;;;;;;2.85;1.92;;;;;;;27.51;39.12;97114.88;5115794;28;20068;-26
2022/06/17 08:07:52;;;;;;;3.30;2.10;;;;;;;27.41;39.19;97119.28;5134323;27;20034;-26
2022/06/17 08:10:20;;;;;;;4.13;1.90;;;;;;;27.41;38.93;97122.09;5134188;27;20038;-28
2022/06/17 08:12:46;;;;;;;3.97;2.00;;;;;;;27.53;39.02;97120.69;5133918;27;20093;-26
2022/06/17 08:15:12;;;;;;;4.22;2.20;;;;;;;27.47;38.79;97126.31;5134155;27;20479;-26
2022/06/17 08:17:39;;;;;;;2.50;2.30;;;;;;;27.47;38.82;97119.97;5134109;27;20023;-26
2022/06/17 08:20:32;;;;;;;4.88;1.95;;;;;;;27.52;39.02;97117.13;5134020;27;20077;-26
2022/06/17 08:23:02;;;;;;;5.30;2.55;;;;;;;27.47;38.92;97126.31;5133114;27;20043;-26
2022/06/17 08:25:29;;;;;;;5.80;2.00;;;;;;;27.48;39.00;97125.03;5137968;27;20546;-26
2022/06/17 08:27:56;;;;;;;6.28;2.13;;;;;;;27.45;39.11;97125.31;5138357;27;20106;-26
2022/06/17 08:30:26;;;;;;;3.45;2.08;;;;;;;27.49;38.76;97128.56;5137812;27;20023;-26
2022/06/17 08:32:53;;;;;;;4.78;2.40;;;;;;;27.52;39.12;97121.97;5137979;27;20069;-26
2022/06/17 08:35:22;;;;;;;2.97;2.15;;;;;;;27.51;39.21;97126.03;5138135;27;20106;-26
2022/06/17 08:37:53;;;;;;;4.38;2.88;;;;;;;27.16;39.40;97124.09;5137699;27;20030;-26
2022/06/17 08:40:22;;;;;;;4.60;2.10;;;;;;;27.24;40.24;97119.47;5138089;27;20030;-26
2022/06/17 08:43:10;;;;;;;8.43;3.17;;;;;;;27.01;40.33;97115.38;5137589;27;20026;-28
2022/06/17 08:45:48;;;;;;;3.33;2.50;;;;;;;27.37;39.07;97108.44;5137784;27;20459;-28
2022/06/17 08:48:41;;;;;;;3.10;2.03;;;;;;;27.41;39.02;97111.69;5137487;27;20035;-28
2022/06/17 08:51:24;;;;;;;3.17;2.47;;;;;;;27.43;39.06;97111.94;5137813;27;20042;-28
2022/06/17 08:54:05;;;;;;;5.63;2.50;;;;;;;27.40;39.53;97099.03;5137620;27;20030;-28
2022/06/17 08:56:42;;;;;;;4.00;2.40;;;;;;;27.50;39.30;97099.44;5137345;27;20035;-28
2022/06/17 08:59:34;;;;;;;4.78;2.60;;;;;;;27.44;39.36;97096.72;5137961;27;20023;-29
2022/06/17 09:02:38;;;;;;;4.60;2.28;;;;;;;27.45;39.38;97101.00;5137503;27;20102;-28
2022/06/17 09:05:31;;;;;;;5.15;2.60;;;;;;;27.43;38.93;97094.47;5118130;27;20071;-28
2022/06/17 09:08:15;;;;;;;;;;;;;;;27.38;39.16;97093.25;5115452;28;20035;-28
2022/06/17 09:11:07;;;;;;;4.72;2.63;;;;;;;27.44;38.99;97101.53;5116551;28;19911;-28
2022/06/17 09:13:51;;;;;;;3.15;2.70;;;;;;;27.44;39.33;97095.97;5093321;28;20039;-28
2022/06/17 09:16:41;;;;;;;5.32;2.40;;;;;;;27.44;38.89;97090.41;5116780;28;20031;-28
2022/06/17 09:19:12;;;;;;;4.10;2.38;;;;;;;27.39;39.25;97094.75;5116558;28;20372;-29
2022/06/17 09:21:48;;;;;;;2.83;2.60;;;;;;;27.42;39.24;97090.91;5116439;28;20023;-30
2022/06/17 09:24:19;;;;;;;4.47;2.40;;;;;;;27.40;39.05;97093.47;5116298;28;20047;-27
2022/06/17 09:26:52;;;;;;;7.43;2.50;;;;;;;27.37;39.01;97088.94;5116464;28;20027;-28
2022/06/17 09:29:25;;;;;;;4.85;2.58;;;;;;;27.40;39.17;97096.25;5116285;28;20360;-27
2022/06/17 09:32:19;;;;;;;4.60;2.60;;;;;;;27.40;39.15;97093.47;5116098;28;20023;-27
2022/06/17 09:35:04;;;;;;;3.22;2.92;;;;;;;27.43;39.17;97091.69;5116000;28;20019;-29
2022/06/17 09:37:35;;;;;;;3.97;2.20;;;;;;;27.42;39.33;97090.91;5116162;28;20019;-27
2022/06/17 09:40:09;;;;;;;3.63;2.20;;;;;;;27.41;39.23;97099.81;5116171;28;20031;-28
2022/06/17 09:42:49;;;;;;;4.30;3.03;;;;;;;27.39;39.06;97094.75;5115850;28;20023;-28
2022/06/17 09:45:26;;;;;;;4.43;2.83;;;;;;;27.43;38.81;97094.47;5097716;28;20051;-28
2022/06/17 09:48:00;;;;;;;3.95;2.83;;;;;;;27.42;39.22;97087.38;5115831;28;20508;-28
2022/06/17 09:50:48;;;;;;;3.45;2.70;;;;;;;27.42;39.05;97085.34;5115884;28;20024;-28
2022/06/17 09:53:24;;;;;;;2.95;2.40;;;;;;;27.42;38.72;97085.34;5115831;28;20027;-28
2022/06/17 09:55:57;;;;;;;4.53;2.40;;;;;;;27.40;38.87;97079.53;5115677;28;20016;-27
2022/06/17 09:58:32;;;;;;;7.90;2.72;;;;;;;27.35;38.83;97074.78;5115815;28;20035;-29
2022/06/17 10:00:58;;;;;;;3.78;2.67;;;;;;;27.40;39.06;97073.97;5115362;28;20024;-27
2022/06/17 10:03:38;;;;;;;2.50;2.30;;;;;;;27.40;38.64;97064.88;5115640;28;20383;-28
2022/06/17 10:06:23;;;;;;;3.35;2.33;;;;;;;27.47;38.80;97064.25;5115678;28;20028;-28
2022/06/17 10:09:26;;;;;;;4.22;2.92;;;;;;;27.47;38.58;97062.22;5115537;28;20047;-28
2022/06/17 10:12:30;;;;;;;6.25;2.67;;;;;;;27.42;38.90;97057.50;5115600;28;20479;-28
2022/06/17 10:15:23;;;;;;;3.88;2.55;;;;;;;27.46;38.71;97063.50;5114811;28;20461;-28
2022/06/17 10:21:12;;;;;;;2.55;2.25;;;;;;;27.51;38.59;97064.72;5115401;28;20035;-28
2022/06/17 10:23:38;;;;;;;5.80;2.60;;;;;;;27.49;39.06;97045.75;5115263;28;20068;-28
2022/06/17 10:26:17;;;;;;;3.38;2.67;;;;;;;27.49;38.84;97056.88;5096824;28;20023;-28
2022/06/17 10:29:21;;;;;;;5.00;2.67;;;;;;;27.47;38.63;97053.13;5115022;28;20020;-27
2022/06/17 10:31:48;;;;;;;5.20;2.50;;;;;;;27.51;38.44;97048.00;5115452;28;20031;-29
2022/06/17 10:34:22;;;;;;;4.25;2.88;;;;;;;27.49;38.63;97051.31;5115170;28;20043;-28
2022/06/17 10:36:52;;;;;;;6.22;2.75;;;;;;;27.43;38.80;97047.88;5114873;28;20023;-28
2022/06/17 10:39:19;;;;;;;4.32;2.55;;;;;;;27.56;38.45;97066.72;5114930;28;20024;-27
2022/06/17 10:41:46;;;;;;;4.45;2.72;;;;;;;27.52;38.41;97052.31;5115071;28;20472;-28
2022/06/17 10:44:14;;;;;;;5.72;3.38;;;;;;;27.49;38.92;97048.53;5114337;28;20471;-28
2022/06/17 10:46:51;;;;;;;3.75;2.83;;;;;;;27.53;38.81;97048.25;5114610;28;20110;-28
2022/06/17 10:49:46;;;;;;;6.32;2.88;;;;;;;27.48;38.45;97046.28;5114634;28;20463;-27
2022/06/17 10:52:21;;;;;;;4.30;2.45;;;;;;;27.57;38.65;97045.19;5111570;28;20512;-28
2022/06/17 10:54:50;;;;;;;5.97;2.80;;;;;;;27.44;39.06;97043.81;5114402;28;20094;-28
2022/06/17 10:57:32;;;;;;;6.18;3.05;;;;;;;27.52;38.69;97043.94;5114812;28;20031;-28
2022/06/17 10:59:58;;;;;;;4.07;2.72;;;;;;;27.56;38.65;97041.66;5114478;28;20498;-28
2022/06/17 11:02:31;;;;;;;6.28;3.00;;;;;;;27.55;38.35;97045.69;5114605;28;20020;-28
2022/06/17 11:05:03;;;;;;;7.00;3.35;;;;;;;27.51;38.62;97043.19;5114271;28;20072;-28
2022/06/17 11:07:34;;;;;;;3.40;3.10;;;;;;;27.51;38.84;97043.19;5114412;28;20019;-28
2022/06/17 11:10:16;;;;;;;4.55;2.40;;;;;;;27.46;38.86;97041.22;5114321;28;20024;-28
2022/06/17 11:12:53;;;;;;;5.20;2.65;;;;;;;27.49;38.77;97033.84;5113908;28;20044;-28
2022/06/17 11:15:22;;;;;;;4.55;2.75;;;;;;;27.44;39.07;97032.66;5114214;28;20088;-28
2022/06/17 11:17:50;;;;;;;7.22;2.90;;;;;;;27.47;39.08;97036.41;5114426;28;20039;-29
2022/06/17 11:20:21;;;;;;;5.50;2.53;;;;;;;27.39;39.11;97022.31;5114241;28;20129;-28
2022/06/17 11:22:56;;;;;;;4.38;2.90;;;;;;;27.47;39.16;97020.44;5113989;28;20019;-29
2022/06/17 11:25:30;;;;;;;5.00;2.70;;;;;;;27.53;39.47;97012.03;5114005;28;20036;-29
2022/06/17 11:28:22;;;;;;;10.45;3.08;;;;;;;27.49;39.33;97001.19;5114029;28;20034;-28
2022/06/17 11:30:57;;;;;;;4.05;3.00;;;;;;;27.46;39.71;97004.25;5104770;28;20410;-28
2022/06/17 11:33:30;;;;;;;7.78;2.55;;;;;;;27.46;39.75;96993.88;5114081;28;20448;-28
2022/06/17 11:36:24;;;;;;;5.78;3.05;;;;;;;27.47;39.73;96995.38;5113889;28;20073;-28
2022/06/17 11:38:51;;;;;;;6.35;2.95;;;;;;;27.52;39.29;96982.66;5081236;28;20100;-28
2022/06/17 11:41:29;;;;;;;7.05;2.97;;;;;;;27.47;39.73;96975.13;5113771;28;20051;-28
2022/06/17 11:44:06;;;;;;;8.15;2.70;;;;;;;27.39;39.90;96963.84;5114021;28;20453;-28
2022/06/17 11:46:34;;;;;;;4.22;3.10;;;;;;;27.32;39.82;96953.31;5113670;28;20020;-28
2022/06/17 11:49:13;;;;;;;5.15;2.72;;;;;;;27.34;39.52;96953.50;5113731;28;20107;-28
2022/06/17 11:51:50;;;;;;;4.85;2.50;;;;;;;27.54;39.59;96947.44;5114137;28;20019;-28
2022/06/17 11:54:30;;;;;;;4.47;2.70;;;;;;;27.56;39.08;96954.53;5095486;28;20087;-27
2022/06/17 11:56:57;;;;;;;5.63;2.95;;;;;;;27.46;39.70;96966.00;5114604;28;20101;-28
2022/06/17 11:59:28;;;;;;;5.60;2.95;;;;;;;27.43;39.84;96985.81;5117897;28;20026;-28
2022/06/17 12:01:54;;;;;;;4.10;2.70;;;;;;;27.43;39.90;96986.59;5117772;28;20024;-28
2022/06/17 12:04:47;;;;;;;9.13;2.90;;;;;;;27.41;39.57;96972.44;5117788;28;20027;-28
2022/06/17 12:07:35;;;;;;;4.60;2.72;;;;;;;27.28;40.15;96969.56;5117727;28;20427;-29